sensor_id;sensor_type;location;lat;lon;timestamp;P1;durP1;ratioP1;P2;durP2;ratioP2
62633;SDS011;48704;50.534;6.442;2023-06-22T00:01:09;7.70;;;4.32;;
62633;SDS011;48704;50.534;6.442;2023-06-22T00:03:34;7.90;;;4.00;;
62633;SDS011;48704;50.534;6.442;2023-06-22T00:06:00;7.75;;;4.60;;
62633;SDS011;48704;50.534;6.442;2023-06-22T00:08:25;7.43;;;4.82;;
62633;SDS011;48704;50.534;6.442;2023-06-22T00:10:50;5.53;;;3.78;;
62633;SDS011;48704;50.534;6.442;2023-06-22T00:13:16;9.30;;;5.35;;
62633;SDS011;48704;50.534;6.442;2023-06-22T00:15:42;6.28;;;4.10;;
62633;SDS011;48704;50.534;6.442;2023-06-22T00:18:08;11.73;;;5.45;;
62633;SDS011;48704;50.534;6.442;2023-06-22T00:20:35;8.10;;;5.55;;
62633;SDS011;48704;50.534;6.442;2023-06-22T00:23:03;8.80;;;5.65;;
62633;SDS011;48704;50.534;6.442;2023-06-22T00:25:34;9.20;;;4.97;;
62633;SDS011;48704;50.534;6.442;2023-06-22T00:28:00;8.85;;;5.03;;
62633;SDS011;48704;50.534;6.442;2023-06-22T00:30:25;7.45;;;4.88;;
62633;SDS011;48704;50.534;6.442;2023-06-22T00:32:50;7.18;;;5.10;;
62633;SDS011;48704;50.534;6.442;2023-06-22T00:35:16;7.85;;;5.20;;
62633;SDS011;48704;50.534;6.442;2023-06-22T00:37:41;7.20;;;4.70;;
62633;SDS011;48704;50.534;6.442;2023-06-22T00:40:09;7.43;;;4.93;;
62633;SDS011;48704;50.534;6.442;2023-06-22T00:42:39;10.65;;;5.75;;
62633;SDS011;48704;50.534;6.442;2023-06-22T00:45:05;8.38;;;5.22;;
62633;SDS011;48704;50.534;6.442;2023-06-22T00:47:31;7.35;;;4.90;;
62633;SDS011;48704;50.534;6.442;2023-06-22T00:49:59;9.52;;;5.25;;
62633;SDS011;48704;50.534;6.442;2023-06-22T00:52:25;7.35;;;5.22;;
62633;SDS011;48704;50.534;6.442;2023-06-22T00:54:54;10.35;;;5.85;;
62633;SDS011;48704;50.534;6.442;2023-06-22T00:57:21;11.88;;;5.60;;
62633;SDS011;48704;50.534;6.442;2023-06-22T00:59:50;8.57;;;5.47;;
62633;SDS011;48704;50.534;6.442;2023-06-22T01:02:16;9.70;;;4.63;;
62633;SDS011;48704;50.534;6.442;2023-06-22T01:04:41;9.38;;;5.55;;
62633;SDS011;48704;50.534;6.442;2023-06-22T01:12:24;12.10;;;6.22;;
62633;SDS011;48704;50.534;6.442;2023-06-22T01:14:58;10.70;;;6.13;;
62633;SDS011;48704;50.534;6.442;2023-06-22T01:17:46;10.05;;;5.45;;
62633;SDS011;48704;50.534;6.442;2023-06-22T01:20:13;9.93;;;6.60;;
62633;SDS011;48704;50.534;6.442;2023-06-22T01:22:53;8.90;;;6.25;;
62633;SDS011;48704;50.534;6.442;2023-06-22T01:25:38;9.45;;;5.97;;
62633;SDS011;48704;50.534;6.442;2023-06-22T01:28:20;11.07;;;6.47;;
62633;SDS011;48704;50.534;6.442;2023-06-22T01:30:51;10.40;;;6.25;;
62633;SDS011;48704;50.534;6.442;2023-06-22T01:33:28;9.85;;;6.55;;
62633;SDS011;48704;50.534;6.442;2023-06-22T01:35:56;10.02;;;5.90;;
62633;SDS011;48704;50.534;6.442;2023-06-22T01:38:22;8.07;;;5.95;;
62633;SDS011;48704;50.534;6.442;2023-06-22T01:40:48;9.43;;;6.00;;
62633;SDS011;48704;50.534;6.442;2023-06-22T01:43:14;10.07;;;5.82;;
62633;SDS011;48704;50.534;6.442;2023-06-22T01:45:40;13.35;;;6.45;;
62633;SDS011;48704;50.534;6.442;2023-06-22T01:48:06;10.93;;;6.43;;
62633;SDS011;48704;50.534;6.442;2023-06-22T01:50:32;9.68;;;6.55;;
62633;SDS011;48704;50.534;6.442;2023-06-22T01:52:57;10.02;;;6.28;;
62633;SDS011;48704;50.534;6.442;2023-06-22T01:55:22;9.30;;;6.80;;
62633;SDS011;48704;50.534;6.442;2023-06-22T01:57:47;9.88;;;5.85;;
62633;SDS011;48704;50.534;6.442;2023-06-22T02:00:14;8.60;;;4.82;;
62633;SDS011;48704;50.534;6.442;2023-06-22T02:05:36;9.30;;;6.00;;
62633;SDS011;48704;50.534;6.442;2023-06-22T02:08:08;9.02;;;5.60;;
62633;SDS011;48704;50.534;6.442;2023-06-22T02:10:36;10.10;;;6.20;;
62633;SDS011;48704;50.534;6.442;2023-06-22T02:13:04;8.65;;;6.43;;
62633;SDS011;48704;50.534;6.442;2023-06-22T02:15:31;8.25;;;5.75;;
62633;SDS011;48704;50.534;6.442;2023-06-22T02:17:57;8.48;;;5.63;;
62633;SDS011;48704;50.534;6.442;2023-06-22T02:20:23;9.48;;;6.10;;
62633;SDS011;48704;50.534;6.442;2023-06-22T02:22:49;9.18;;;5.97;;
62633;SDS011;48704;50.534;6.442;2023-06-22T02:25:14;8.80;;;5.65;;
62633;SDS011;48704;50.534;6.442;2023-06-22T02:27:40;8.10;;;5.32;;
62633;SDS011;48704;50.534;6.442;2023-06-22T02:30:06;13.50;;;6.00;;
62633;SDS011;48704;50.534;6.442;2023-06-22T02:32:33;11.52;;;6.20;;
62633;SDS011;48704;50.534;6.442;2023-06-22T02:35:00;9.07;;;6.45;;
62633;SDS011;48704;50.534;6.442;2023-06-22T02:37:29;8.32;;;6.50;;
62633;SDS011;48704;50.534;6.442;2023-06-22T02:39:54;8.23;;;5.90;;
62633;SDS011;48704;50.534;6.442;2023-06-22T02:42:19;10.35;;;6.35;;
62633;SDS011;48704;50.534;6.442;2023-06-22T02:44:46;11.50;;;7.45;;
62633;SDS011;48704;50.534;6.442;2023-06-22T02:47:12;9.65;;;6.57;;
62633;SDS011;48704;50.534;6.442;2023-06-22T02:49:37;9.52;;;6.07;;
62633;SDS011;48704;50.534;6.442;2023-06-22T02:52:02;10.93;;;7.00;;
62633;SDS011;48704;50.534;6.442;2023-06-22T02:54:28;10.27;;;6.90;;
62633;SDS011;48704;50.534;6.442;2023-06-22T02:56:53;8.88;;;5.85;;
62633;SDS011;48704;50.534;6.442;2023-06-22T02:59:18;9.20;;;6.18;;
62633;SDS011;48704;50.534;6.442;2023-06-22T03:01:48;9.82;;;6.05;;
62633;SDS011;48704;50.534;6.442;2023-06-22T03:04:13;8.45;;;5.50;;
62633;SDS011;48704;50.534;6.442;2023-06-22T03:06:40;9.32;;;6.15;;
62633;SDS011;48704;50.534;6.442;2023-06-22T03:09:07;8.73;;;6.05;;
62633;SDS011;48704;50.534;6.442;2023-06-22T03:11:33;13.73;;;7.68;;
62633;SDS011;48704;50.534;6.442;2023-06-22T03:13:59;9.20;;;6.38;;
62633;SDS011;48704;50.534;6.442;2023-06-22T03:16:25;8.75;;;5.65;;
62633;SDS011;48704;50.534;6.442;2023-06-22T03:18:51;10.85;;;6.70;;
62633;SDS011;48704;50.534;6.442;2023-06-22T03:21:16;8.48;;;6.85;;
62633;SDS011;48704;50.534;6.442;2023-06-22T03:23:42;9.65;;;7.28;;
62633;SDS011;48704;50.534;6.442;2023-06-22T03:26:08;9.57;;;7.20;;
62633;SDS011;48704;50.534;6.442;2023-06-22T03:28:34;15.15;;;7.53;;
62633;SDS011;48704;50.534;6.442;2023-06-22T03:31:00;9.85;;;7.18;;
62633;SDS011;48704;50.534;6.442;2023-06-22T03:33:25;10.25;;;6.60;;
62633;SDS011;48704;50.534;6.442;2023-06-22T03:35:50;12.30;;;7.30;;
62633;SDS011;48704;50.534;6.442;2023-06-22T03:38:18;10.77;;;6.28;;
62633;SDS011;48704;50.534;6.442;2023-06-22T03:40:43;9.27;;;6.25;;
62633;SDS011;48704;50.534;6.442;2023-06-22T03:43:09;9.77;;;7.70;;
62633;SDS011;48704;50.534;6.442;2023-06-22T03:45:34;10.10;;;7.35;;
62633;SDS011;48704;50.534;6.442;2023-06-22T03:48:00;11.88;;;8.27;;
62633;SDS011;48704;50.534;6.442;2023-06-22T03:50:26;11.18;;;8.45;;
62633;SDS011;48704;50.534;6.442;2023-06-22T03:52:51;12.88;;;8.68;;
62633;SDS011;48704;50.534;6.442;2023-06-22T03:55:17;15.45;;;9.30;;
62633;SDS011;48704;50.534;6.442;2023-06-22T03:57:43;13.32;;;9.52;;
62633;SDS011;48704;50.534;6.442;2023-06-22T04:00:08;13.63;;;9.95;;
62633;SDS011;48704;50.534;6.442;2023-06-22T04:02:35;14.90;;;9.95;;
62633;SDS011;48704;50.534;6.442;2023-06-22T04:05:00;12.25;;;9.77;;
62633;SDS011;48704;50.534;6.442;2023-06-22T04:07:26;16.58;;;9.98;;
62633;SDS011;48704;50.534;6.442;2023-06-22T04:09:51;13.05;;;9.30;;
62633;SDS011;48704;50.534;6.442;2023-06-22T04:12:16;13.95;;;10.07;;
62633;SDS011;48704;50.534;6.442;2023-06-22T04:14:41;16.10;;;11.80;;
62633;SDS011;48704;50.534;6.442;2023-06-22T04:17:07;12.82;;;9.95;;
62633;SDS011;48704;50.534;6.442;2023-06-22T04:19:32;13.30;;;10.45;;
62633;SDS011;48704;50.534;6.442;2023-06-22T04:21:57;14.70;;;10.02;;
62633;SDS011;48704;50.534;6.442;2023-06-22T04:24:22;12.95;;;9.93;;
62633;SDS011;48704;50.534;6.442;2023-06-22T04:26:48;18.10;;;11.77;;
62633;SDS011;48704;50.534;6.442;2023-06-22T04:29:13;16.50;;;10.55;;
62633;SDS011;48704;50.534;6.442;2023-06-22T04:31:38;12.95;;;10.30;;
62633;SDS011;48704;50.534;6.442;2023-06-22T04:34:04;14.25;;;10.50;;
62633;SDS011;48704;50.534;6.442;2023-06-22T04:36:33;13.60;;;9.88;;
62633;SDS011;48704;50.534;6.442;2023-06-22T04:39:02;13.50;;;9.27;;
62633;SDS011;48704;50.534;6.442;2023-06-22T04:41:35;12.00;;;9.15;;
62633;SDS011;48704;50.534;6.442;2023-06-22T04:44:10;16.07;;;10.30;;
62633;SDS011;48704;50.534;6.442;2023-06-22T04:49:19;11.25;;;8.18;;
62633;SDS011;48704;50.534;6.442;2023-06-22T04:51:45;13.45;;;8.50;;
62633;SDS011;48704;50.534;6.442;2023-06-22T04:54:11;12.80;;;8.50;;
62633;SDS011;48704;50.534;6.442;2023-06-22T04:56:36;11.57;;;8.60;;
62633;SDS011;48704;50.534;6.442;2023-06-22T04:59:02;12.00;;;7.88;;
62633;SDS011;48704;50.534;6.442;2023-06-22T05:01:31;14.40;;;8.50;;
62633;SDS011;48704;50.534;6.442;2023-06-22T05:03:56;14.07;;;8.40;;
62633;SDS011;48704;50.534;6.442;2023-06-22T05:06:22;11.80;;;8.98;;
62633;SDS011;48704;50.534;6.442;2023-06-22T05:08:55;11.68;;;8.32;;
62633;SDS011;48704;50.534;6.442;2023-06-22T05:11:27;10.95;;;8.55;;
62633;SDS011;48704;50.534;6.442;2023-06-22T05:13:52;12.88;;;8.60;;
62633;SDS011;48704;50.534;6.442;2023-06-22T05:16:18;11.70;;;8.88;;
62633;SDS011;48704;50.534;6.442;2023-06-22T05:18:49;10.70;;;8.15;;
62633;SDS011;48704;50.534;6.442;2023-06-22T05:21:15;11.82;;;8.18;;
62633;SDS011;48704;50.534;6.442;2023-06-22T05:23:40;12.15;;;8.95;;
62633;SDS011;48704;50.534;6.442;2023-06-22T05:26:06;13.35;;;9.40;;
62633;SDS011;48704;50.534;6.442;2023-06-22T05:28:34;11.40;;;9.35;;
62633;SDS011;48704;50.534;6.442;2023-06-22T05:30:59;15.15;;;10.00;;
62633;SDS011;48704;50.534;6.442;2023-06-22T05:33:25;16.00;;;10.23;;
62633;SDS011;48704;50.534;6.442;2023-06-22T05:35:50;14.38;;;10.13;;
62633;SDS011;48704;50.534;6.442;2023-06-22T05:38:15;12.93;;;10.40;;
62633;SDS011;48704;50.534;6.442;2023-06-22T05:40:41;16.85;;;10.07;;
62633;SDS011;48704;50.534;6.442;2023-06-22T05:43:06;13.30;;;9.63;;
62633;SDS011;48704;50.534;6.442;2023-06-22T05:45:31;18.70;;;10.38;;
62633;SDS011;48704;50.534;6.442;2023-06-22T05:47:56;13.73;;;10.45;;
62633;SDS011;48704;50.534;6.442;2023-06-22T05:50:22;14.20;;;9.07;;
62633;SDS011;48704;50.534;6.442;2023-06-22T05:52:47;12.65;;;9.25;;
62633;SDS011;48704;50.534;6.442;2023-06-22T05:55:12;12.40;;;9.30;;
62633;SDS011;48704;50.534;6.442;2023-06-22T05:57:37;14.68;;;10.75;;
62633;SDS011;48704;50.534;6.442;2023-06-22T06:00:03;15.07;;;11.25;;
62633;SDS011;48704;50.534;6.442;2023-06-22T06:02:31;14.50;;;9.98;;
62633;SDS011;48704;50.534;6.442;2023-06-22T06:04:58;15.57;;;9.52;;
62633;SDS011;48704;50.534;6.442;2023-06-22T06:07:24;13.20;;;9.88;;
62633;SDS011;48704;50.534;6.442;2023-06-22T06:09:49;13.05;;;9.43;;
62633;SDS011;48704;50.534;6.442;2023-06-22T06:12:14;13.18;;;9.65;;
62633;SDS011;48704;50.534;6.442;2023-06-22T06:14:39;11.68;;;8.30;;
62633;SDS011;48704;50.534;6.442;2023-06-22T06:17:05;10.63;;;8.27;;
62633;SDS011;48704;50.534;6.442;2023-06-22T06:19:30;13.25;;;9.13;;
62633;SDS011;48704;50.534;6.442;2023-06-22T06:21:55;13.98;;;10.13;;
62633;SDS011;48704;50.534;6.442;2023-06-22T06:24:21;12.05;;;9.13;;
62633;SDS011;48704;50.534;6.442;2023-06-22T06:26:46;14.18;;;10.00;;
62633;SDS011;48704;50.534;6.442;2023-06-22T06:29:12;11.07;;;8.40;;
62633;SDS011;48704;50.534;6.442;2023-06-22T06:31:37;13.48;;;9.15;;
62633;SDS011;48704;50.534;6.442;2023-06-22T06:34:02;12.23;;;9.32;;
62633;SDS011;48704;50.534;6.442;2023-06-22T06:36:28;10.70;;;8.43;;
62633;SDS011;48704;50.534;6.442;2023-06-22T06:38:53;13.60;;;10.10;;
62633;SDS011;48704;50.534;6.442;2023-06-22T06:41:18;12.93;;;10.33;;
62633;SDS011;48704;50.534;6.442;2023-06-22T06:43:44;12.27;;;9.25;;
62633;SDS011;48704;50.534;6.442;2023-06-22T06:46:09;12.23;;;9.15;;
62633;SDS011;48704;50.534;6.442;2023-06-22T06:48:35;13.73;;;10.13;;
62633;SDS011;48704;50.534;6.442;2023-06-22T06:51:00;12.60;;;8.88;;
62633;SDS011;48704;50.534;6.442;2023-06-22T06:53:25;13.10;;;9.77;;
62633;SDS011;48704;50.534;6.442;2023-06-22T06:55:51;12.82;;;9.93;;
62633;SDS011;48704;50.534;6.442;2023-06-22T06:58:17;11.52;;;8.98;;
62633;SDS011;48704;50.534;6.442;2023-06-22T07:00:42;12.37;;;10.13;;
62633;SDS011;48704;50.534;6.442;2023-06-22T07:03:08;12.60;;;9.63;;
62633;SDS011;48704;50.534;6.442;2023-06-22T07:05:34;13.35;;;10.45;;
62633;SDS011;48704;50.534;6.442;2023-06-22T07:08:00;14.80;;;10.82;;
62633;SDS011;48704;50.534;6.442;2023-06-22T07:10:25;14.40;;;10.18;;
62633;SDS011;48704;50.534;6.442;2023-06-22T07:12:51;11.43;;;9.52;;
62633;SDS011;48704;50.534;6.442;2023-06-22T07:15:16;14.60;;;10.27;;
62633;SDS011;48704;50.534;6.442;2023-06-22T07:17:41;14.30;;;10.55;;
62633;SDS011;48704;50.534;6.442;2023-06-22T07:20:07;12.68;;;10.35;;
62633;SDS011;48704;50.534;6.442;2023-06-22T07:22:40;12.25;;;9.75;;
62633;SDS011;48704;50.534;6.442;2023-06-22T07:25:07;12.25;;;9.88;;
62633;SDS011;48704;50.534;6.442;2023-06-22T07:27:39;14.70;;;10.50;;
62633;SDS011;48704;50.534;6.442;2023-06-22T07:30:08;13.77;;;11.35;;
62633;SDS011;48704;50.534;6.442;2023-06-22T07:32:34;12.02;;;9.65;;
62633;SDS011;48704;50.534;6.442;2023-06-22T07:35:00;14.40;;;10.48;;
62633;SDS011;48704;50.534;6.442;2023-06-22T07:37:26;12.90;;;10.48;;
62633;SDS011;48704;50.534;6.442;2023-06-22T07:39:53;12.43;;;9.43;;
62633;SDS011;48704;50.534;6.442;2023-06-22T07:42:20;12.48;;;9.85;;
62633;SDS011;48704;50.534;6.442;2023-06-22T07:44:45;11.75;;;9.75;;
62633;SDS011;48704;50.534;6.442;2023-06-22T07:47:11;12.15;;;9.15;;
62633;SDS011;48704;50.534;6.442;2023-06-22T07:49:36;11.35;;;8.98;;
62633;SDS011;48704;50.534;6.442;2023-06-22T07:52:01;13.05;;;9.18;;
62633;SDS011;48704;50.534;6.442;2023-06-22T07:54:27;13.05;;;9.80;;
62633;SDS011;48704;50.534;6.442;2023-06-22T07:56:52;11.77;;;8.88;;
62633;SDS011;48704;50.534;6.442;2023-06-22T07:59:17;11.70;;;8.25;;
62633;SDS011;48704;50.534;6.442;2023-06-22T08:01:43;12.35;;;8.75;;
62633;SDS011;48704;50.534;6.442;2023-06-22T08:04:08;9.75;;;8.13;;
62633;SDS011;48704;50.534;6.442;2023-06-22T08:06:33;10.63;;;7.63;;
62633;SDS011;48704;50.534;6.442;2023-06-22T08:08:59;11.38;;;8.93;;
62633;SDS011;48704;50.534;6.442;2023-06-22T08:11:24;10.68;;;8.10;;
62633;SDS011;48704;50.534;6.442;2023-06-22T08:13:50;11.18;;;8.15;;
62633;SDS011;48704;50.534;6.442;2023-06-22T08:16:16;10.65;;;8.90;;
62633;SDS011;48704;50.534;6.442;2023-06-22T08:18:43;11.75;;;8.90;;
62633;SDS011;48704;50.534;6.442;2023-06-22T08:21:08;10.50;;;8.15;;
62633;SDS011;48704;50.534;6.442;2023-06-22T08:23:33;11.98;;;8.52;;
62633;SDS011;48704;50.534;6.442;2023-06-22T08:26:00;13.68;;;8.50;;
62633;SDS011;48704;50.534;6.442;2023-06-22T08:28:25;11.82;;;7.95;;
62633;SDS011;48704;50.534;6.442;2023-06-22T08:30:50;12.10;;;8.60;;
62633;SDS011;48704;50.534;6.442;2023-06-22T08:33:16;12.55;;;9.48;;
62633;SDS011;48704;50.534;6.442;2023-06-22T08:35:41;10.73;;;8.82;;
62633;SDS011;48704;50.534;6.442;2023-06-22T08:38:06;11.80;;;8.55;;
62633;SDS011;48704;50.534;6.442;2023-06-22T08:40:32;10.88;;;7.93;;
62633;SDS011;48704;50.534;6.442;2023-06-22T08:42:58;10.27;;;7.30;;
62633;SDS011;48704;50.534;6.442;2023-06-22T08:45:23;11.77;;;8.85;;
62633;SDS011;48704;50.534;6.442;2023-06-22T08:47:48;15.60;;;8.93;;
62633;SDS011;48704;50.534;6.442;2023-06-22T08:50:13;12.82;;;8.57;;
62633;SDS011;48704;50.534;6.442;2023-06-22T08:52:40;10.63;;;7.97;;
62633;SDS011;48704;50.534;6.442;2023-06-22T08:55:06;13.20;;;9.70;;
62633;SDS011;48704;50.534;6.442;2023-06-22T08:57:32;12.43;;;8.48;;
62633;SDS011;48704;50.534;6.442;2023-06-22T08:59:58;18.08;;;11.02;;
62633;SDS011;48704;50.534;6.442;2023-06-22T09:02:23;13.15;;;9.02;;
62633;SDS011;48704;50.534;6.442;2023-06-22T09:04:49;15.90;;;10.77;;
62633;SDS011;48704;50.534;6.442;2023-06-22T09:07:21;12.45;;;9.05;;
62633;SDS011;48704;50.534;6.442;2023-06-22T09:09:48;12.73;;;9.60;;
62633;SDS011;48704;50.534;6.442;2023-06-22T09:12:13;14.38;;;10.88;;
62633;SDS011;48704;50.534;6.442;2023-06-22T09:14:39;12.82;;;9.32;;
62633;SDS011;48704;50.534;6.442;2023-06-22T09:17:04;14.57;;;11.80;;
62633;SDS011;48704;50.534;6.442;2023-06-22T09:19:30;15.77;;;11.63;;
62633;SDS011;48704;50.534;6.442;2023-06-22T09:21:55;15.05;;;10.77;;
62633;SDS011;48704;50.534;6.442;2023-06-22T09:24:20;14.38;;;11.32;;
62633;SDS011;48704;50.534;6.442;2023-06-22T09:26:46;14.57;;;11.23;;
62633;SDS011;48704;50.534;6.442;2023-06-22T09:29:11;15.45;;;10.88;;
62633;SDS011;48704;50.534;6.442;2023-06-22T09:31:36;15.32;;;10.93;;
62633;SDS011;48704;50.534;6.442;2023-06-22T09:34:01;14.57;;;10.80;;
62633;SDS011;48704;50.534;6.442;2023-06-22T09:36:27;17.80;;;12.05;;
62633;SDS011;48704;50.534;6.442;2023-06-22T09:38:52;15.35;;;12.23;;
62633;SDS011;48704;50.534;6.442;2023-06-22T09:41:23;19.08;;;12.40;;
62633;SDS011;48704;50.534;6.442;2023-06-22T09:43:48;23.67;;;16.48;;
62633;SDS011;48704;50.534;6.442;2023-06-22T09:46:17;22.65;;;16.52;;
62633;SDS011;48704;50.534;6.442;2023-06-22T09:48:42;22.30;;;15.48;;
62633;SDS011;48704;50.534;6.442;2023-06-22T09:51:08;24.70;;;19.05;;
62633;SDS011;48704;50.534;6.442;2023-06-22T09:53:33;26.83;;;18.35;;
62633;SDS011;48704;50.534;6.442;2023-06-22T09:55:59;22.30;;;16.98;;
62633;SDS011;48704;50.534;6.442;2023-06-22T09:58:25;18.92;;;14.70;;
62633;SDS011;48704;50.534;6.442;2023-06-22T10:00:50;27.23;;;19.02;;
62633;SDS011;48704;50.534;6.442;2023-06-22T10:03:16;24.10;;;16.83;;
62633;SDS011;48704;50.534;6.442;2023-06-22T10:05:41;22.95;;;18.45;;
62633;SDS011;48704;50.534;6.442;2023-06-22T10:08:06;24.90;;;19.27;;
62633;SDS011;48704;50.534;6.442;2023-06-22T10:10:33;26.40;;;18.30;;
62633;SDS011;48704;50.534;6.442;2023-06-22T10:13:07;25.88;;;16.95;;
62633;SDS011;48704;50.534;6.442;2023-06-22T10:15:36;31.63;;;19.80;;
62633;SDS011;48704;50.534;6.442;2023-06-22T10:18:02;23.85;;;16.85;;
62633;SDS011;48704;50.534;6.442;2023-06-22T10:20:27;24.95;;;19.02;;
62633;SDS011;48704;50.534;6.442;2023-06-22T10:22:53;23.00;;;15.98;;
62633;SDS011;48704;50.534;6.442;2023-06-22T10:25:19;29.00;;;20.15;;
62633;SDS011;48704;50.534;6.442;2023-06-22T10:27:44;25.20;;;17.75;;
62633;SDS011;48704;50.534;6.442;2023-06-22T10:30:10;23.67;;;17.50;;
62633;SDS011;48704;50.534;6.442;2023-06-22T10:32:38;24.83;;;17.40;;
62633;SDS011;48704;50.534;6.442;2023-06-22T10:35:03;25.63;;;16.83;;
62633;SDS011;48704;50.534;6.442;2023-06-22T10:37:29;25.25;;;18.30;;
62633;SDS011;48704;50.534;6.442;2023-06-22T10:39:54;23.45;;;18.02;;
62633;SDS011;48704;50.534;6.442;2023-06-22T10:42:20;24.63;;;18.88;;
62633;SDS011;48704;50.534;6.442;2023-06-22T10:44:45;27.10;;;18.42;;
62633;SDS011;48704;50.534;6.442;2023-06-22T10:47:10;23.23;;;18.42;;
62633;SDS011;48704;50.534;6.442;2023-06-22T10:49:39;24.10;;;18.08;;
62633;SDS011;48704;50.534;6.442;2023-06-22T10:52:06;23.05;;;16.85;;
62633;SDS011;48704;50.534;6.442;2023-06-22T10:54:32;27.15;;;18.88;;
62633;SDS011;48704;50.534;6.442;2023-06-22T10:56:58;26.38;;;18.42;;
62633;SDS011;48704;50.534;6.442;2023-06-22T10:59:23;22.80;;;18.02;;
62633;SDS011;48704;50.534;6.442;2023-06-22T11:01:50;27.85;;;20.55;;
62633;SDS011;48704;50.534;6.442;2023-06-22T11:04:16;24.35;;;18.52;;
62633;SDS011;48704;50.534;6.442;2023-06-22T11:06:42;20.95;;;17.52;;
62633;SDS011;48704;50.534;6.442;2023-06-22T11:09:07;24.00;;;16.10;;
62633;SDS011;48704;50.534;6.442;2023-06-22T11:11:33;25.55;;;18.55;;
62633;SDS011;48704;50.534;6.442;2023-06-22T11:13:58;28.55;;;19.90;;
62633;SDS011;48704;50.534;6.442;2023-06-22T11:16:23;29.73;;;21.73;;
62633;SDS011;48704;50.534;6.442;2023-06-22T11:18:48;29.67;;;21.52;;
62633;SDS011;48704;50.534;6.442;2023-06-22T11:21:14;26.08;;;21.38;;
62633;SDS011;48704;50.534;6.442;2023-06-22T11:23:39;23.67;;;18.42;;
62633;SDS011;48704;50.534;6.442;2023-06-22T11:26:06;24.60;;;19.52;;
62633;SDS011;48704;50.534;6.442;2023-06-22T11:28:32;26.38;;;21.35;;
62633;SDS011;48704;50.534;6.442;2023-06-22T11:30:57;25.70;;;20.50;;
62633;SDS011;48704;50.534;6.442;2023-06-22T11:33:22;26.52;;;21.70;;
62633;SDS011;48704;50.534;6.442;2023-06-22T11:35:47;30.13;;;22.23;;
62633;SDS011;48704;50.534;6.442;2023-06-22T11:38:13;24.30;;;19.60;;
62633;SDS011;48704;50.534;6.442;2023-06-22T11:40:38;22.65;;;18.95;;
62633;SDS011;48704;50.534;6.442;2023-06-22T11:43:03;25.63;;;17.80;;
62633;SDS011;48704;50.534;6.442;2023-06-22T11:45:29;26.58;;;20.20;;
62633;SDS011;48704;50.534;6.442;2023-06-22T11:47:54;23.00;;;16.85;;
62633;SDS011;48704;50.534;6.442;2023-06-22T11:50:19;26.90;;;20.15;;
62633;SDS011;48704;50.534;6.442;2023-06-22T11:52:45;21.27;;;16.77;;
62633;SDS011;48704;50.534;6.442;2023-06-22T11:55:10;24.20;;;18.08;;
62633;SDS011;48704;50.534;6.442;2023-06-22T11:57:36;18.98;;;16.27;;
62633;SDS011;48704;50.534;6.442;2023-06-22T12:00:03;20.08;;;15.85;;
62633;SDS011;48704;50.534;6.442;2023-06-22T12:02:31;20.50;;;15.25;;
62633;SDS011;48704;50.534;6.442;2023-06-22T12:04:57;20.20;;;14.98;;
62633;SDS011;48704;50.534;6.442;2023-06-22T12:07:23;21.20;;;15.60;;
62633;SDS011;48704;50.534;6.442;2023-06-22T12:09:48;17.08;;;14.02;;
62633;SDS011;48704;50.534;6.442;2023-06-22T12:12:13;21.55;;;15.68;;
62633;SDS011;48704;50.534;6.442;2023-06-22T12:14:39;21.53;;;16.40;;
62633;SDS011;48704;50.534;6.442;2023-06-22T12:17:04;23.25;;;16.88;;
62633;SDS011;48704;50.534;6.442;2023-06-22T12:19:29;18.92;;;14.82;;
62633;SDS011;48704;50.534;6.442;2023-06-22T12:21:55;22.52;;;16.80;;
62633;SDS011;48704;50.534;6.442;2023-06-22T12:24:20;20.80;;;15.82;;
62633;SDS011;48704;50.534;6.442;2023-06-22T12:26:45;17.75;;;14.80;;
62633;SDS011;48704;50.534;6.442;2023-06-22T12:29:10;19.03;;;13.33;;
62633;SDS011;48704;50.534;6.442;2023-06-22T12:31:36;20.10;;;14.45;;
62633;SDS011;48704;50.534;6.442;2023-06-22T12:34:03;15.27;;;12.63;;
62633;SDS011;48704;50.534;6.442;2023-06-22T12:36:29;14.85;;;11.73;;
62633;SDS011;48704;50.534;6.442;2023-06-22T12:38:54;14.65;;;12.00;;
62633;SDS011;48704;50.534;6.442;2023-06-22T12:41:19;15.90;;;12.67;;
62633;SDS011;48704;50.534;6.442;2023-06-22T12:43:44;17.67;;;12.90;;
62633;SDS011;48704;50.534;6.442;2023-06-22T12:46:10;16.70;;;13.03;;
62633;SDS011;48704;50.534;6.442;2023-06-22T12:48:35;15.90;;;12.17;;
62633;SDS011;48704;50.534;6.442;2023-06-22T12:51:06;18.63;;;14.98;;
62633;SDS011;48704;50.534;6.442;2023-06-22T12:53:31;18.00;;;14.65;;
62633;SDS011;48704;50.534;6.442;2023-06-22T12:55:57;18.17;;;13.67;;
62633;SDS011;48704;50.534;6.442;2023-06-22T12:58:23;19.00;;;14.30;;
62633;SDS011;48704;50.534;6.442;2023-06-22T13:00:48;14.87;;;12.20;;
62633;SDS011;48704;50.534;6.442;2023-06-22T13:03:14;18.30;;;12.70;;
62633;SDS011;48704;50.534;6.442;2023-06-22T13:05:39;15.85;;;12.27;;
62633;SDS011;48704;50.534;6.442;2023-06-22T13:08:04;15.80;;;11.55;;
62633;SDS011;48704;50.534;6.442;2023-06-22T13:10:30;16.30;;;12.35;;
62633;SDS011;48704;50.534;6.442;2023-06-22T13:12:55;15.13;;;10.68;;
62633;SDS011;48704;50.534;6.442;2023-06-22T13:15:25;12.30;;;10.15;;
62633;SDS011;48704;50.534;6.442;2023-06-22T13:17:54;13.32;;;10.32;;
62633;SDS011;48704;50.534;6.442;2023-06-22T13:20:20;12.43;;;9.93;;
62633;SDS011;48704;50.534;6.442;2023-06-22T13:22:45;13.40;;;9.68;;
62633;SDS011;48704;50.534;6.442;2023-06-22T13:25:11;14.30;;;9.80;;
62633;SDS011;48704;50.534;6.442;2023-06-22T13:27:38;13.10;;;9.43;;
62633;SDS011;48704;50.534;6.442;2023-06-22T13:30:07;12.18;;;9.70;;
62633;SDS011;48704;50.534;6.442;2023-06-22T13:32:33;15.45;;;9.82;;
62633;SDS011;48704;50.534;6.442;2023-06-22T13:34:58;13.05;;;9.93;;
62633;SDS011;48704;50.534;6.442;2023-06-22T13:37:25;14.70;;;9.98;;
62633;SDS011;48704;50.534;6.442;2023-06-22T13:39:50;14.07;;;10.85;;
62633;SDS011;48704;50.534;6.442;2023-06-22T13:42:16;14.45;;;10.45;;
62633;SDS011;48704;50.534;6.442;2023-06-22T13:44:41;16.05;;;11.25;;
62633;SDS011;48704;50.534;6.442;2023-06-22T13:47:07;11.82;;;10.40;;
62633;SDS011;48704;50.534;6.442;2023-06-22T13:49:32;12.27;;;9.70;;
62633;SDS011;48704;50.534;6.442;2023-06-22T13:51:58;13.75;;;11.07;;
62633;SDS011;48704;50.534;6.442;2023-06-22T13:54:24;15.82;;;11.60;;
62633;SDS011;48704;50.534;6.442;2023-06-22T13:56:49;12.85;;;10.15;;
62633;SDS011;48704;50.534;6.442;2023-06-22T13:59:14;12.93;;;10.18;;
62633;SDS011;48704;50.534;6.442;2023-06-22T14:01:40;15.20;;;10.00;;
62633;SDS011;48704;50.534;6.442;2023-06-22T14:04:06;14.02;;;10.20;;
62633;SDS011;48704;50.534;6.442;2023-06-22T14:06:31;14.45;;;10.18;;
62633;SDS011;48704;50.534;6.442;2023-06-22T14:08:56;13.02;;;10.18;;
62633;SDS011;48704;50.534;6.442;2023-06-22T14:11:22;16.23;;;11.63;;
62633;SDS011;48704;50.534;6.442;2023-06-22T14:13:47;12.90;;;10.30;;
62633;SDS011;48704;50.534;6.442;2023-06-22T14:16:12;14.45;;;11.23;;
62633;SDS011;48704;50.534;6.442;2023-06-22T14:18:38;14.35;;;12.55;;
62633;SDS011;48704;50.534;6.442;2023-06-22T14:21:03;14.15;;;10.68;;
62633;SDS011;48704;50.534;6.442;2023-06-22T14:23:28;15.13;;;11.68;;
62633;SDS011;48704;50.534;6.442;2023-06-22T14:25:54;14.40;;;11.02;;
62633;SDS011;48704;50.534;6.442;2023-06-22T14:28:19;17.10;;;13.20;;
62633;SDS011;48704;50.534;6.442;2023-06-22T14:30:44;15.35;;;12.63;;
62633;SDS011;48704;50.534;6.442;2023-06-22T14:33:09;14.25;;;10.35;;
62633;SDS011;48704;50.534;6.442;2023-06-22T14:35:36;14.75;;;11.75;;